Marble Falls, TX

3:13 PM CDT on September 29, 2016 (GMT -0500)
Horseshoe Bay

Weather History for KDZB - March, 2014

Change the Weather History Date:

Friday, March 21, 2014

  Actual Average (KBMQ) Record (KBMQ)
Temperature  
Mean Temperature 67 °F -  
Max Temperature 81 °F 67 °F 86 °F (1997)
Min Temperature 53 °F 47 °F 36 °F (1998)
Cooling Degree Days 2    
Growing Degree Days 17 (Base 50)    
Moisture  
Dew Point 52 °F    
Average Humidity 57    
Maximum Humidity 81    
Minimum Humidity 36    
Precipitation  
Precipitation 0.00 in - - ()
Sea Level Pressure  
Sea Level Pressure 29.90 in    
Wind  
Wind Speed 7 mph (South)    
Max Wind Speed 21 mph    
Max Gust Speed 28 mph    
Visibility 10 miles    
Events      
Averages and records for this station are not official NWS values.
T = Trace of Precipitation, MM = Missing Value Source: NWS Daily Summary

Daily Weather History Graph

Daily Weather History Graph

Search for Another Location

Airport or City:

Trip Planner

Search our weather history database for the weather conditions in past years. The results will help you decide how hot, cold, wet, or windy it might be!

Date:

Astronomy

Mar. 21, 2014 Rise Set
Actual Time 6:35 AM MDT 6:45 PM MDT
Civil Twilight 6:11 AM MDT 7:09 PM MDT
Nautical Twilight 5:43 AM MDT 7:37 PM MDT
Astronomical Twilight 5:15 AM MDT 8:05 PM MDT
Moon 11:47 PM MDT (3/21) 9:47 AM MDT (3/21)
Length of Visible Light 12h 57m
Length of Day
12h 09m
Waning Gibbous, 75% of the Moon is Illuminated
Mar 21
Waning Gibbous
Mar 23
Last Quarter
Mar 30
New
Apr 7
First Quarter
Apr 15
Full

Hourly Weather History & Observations

Time (MDT) Temp. Heat Index Dew Point Humidity Pressure Visibility Wind Dir Wind Speed Gust Speed Precip Events Conditions
12:15 AM 58.5 °F - 39.2 °F 49% 30.01 in 10.0 mi South 6.9 mph - N/A   Clear
12:35 AM 58.3 °F - 39.2 °F 49% 30.01 in 10.0 mi South 6.9 mph - N/A   Clear
12:55 AM 57.7 °F - 39.2 °F 50% 30.00 in 10.0 mi South 4.6 mph - N/A   Clear
1:15 AM 58.1 °F - 40.8 °F 53% 30.00 in 10.0 mi South 4.6 mph - N/A   Clear
1:35 AM 58.6 °F - 42.3 °F 55% 29.99 in 10.0 mi South 3.5 mph - N/A   Clear
1:55 AM 58.6 °F - 43.5 °F 57% 29.98 in 10.0 mi South 5.8 mph - N/A   Clear
2:15 AM 58.6 °F - 44.6 °F 60% 29.98 in 10.0 mi South 5.8 mph - N/A   Clear
2:35 AM 59.0 °F - 45.5 °F 61% 29.97 in 10.0 mi SSE 5.8 mph - N/A   Clear
2:55 AM 58.5 °F - 46.0 °F 63% 29.96 in 10.0 mi South 6.9 mph - N/A   Clear
3:15 AM 58.1 °F - 47.3 °F 67% 29.95 in 10.0 mi SSE 4.6 mph - N/A   Clear
3:35 AM 58.1 °F - 48.2 °F 70% 29.94 in 10.0 mi SSE 6.9 mph - N/A   Clear
3:55 AM 57.6 °F - 48.2 °F 71% 29.94 in 10.0 mi SSE 4.6 mph - N/A   Clear
4:15 AM 57.0 °F - 48.2 °F 72% 29.94 in 10.0 mi Calm Calm - N/A   Clear
4:35 AM 55.6 °F - 48.0 °F 76% 29.94 in 10.0 mi Calm Calm - N/A   Clear
4:55 AM 54.9 °F - 48.2 °F 78% 29.94 in 10.0 mi Calm Calm - N/A   Clear
5:15 AM 53.8 °F - 47.7 °F 80% 29.94 in 10.0 mi Calm Calm - N/A   Clear
5:35 AM 55.8 °F - 49.1 °F 78% 29.93 in 10.0 mi SE 4.6 mph - N/A   Clear
5:55 AM 56.8 °F - 49.6 °F 77% 29.93 in 10.0 mi Calm Calm - N/A   Clear
6:15 AM 54.1 °F - 48.2 °F 80% 29.94 in 10.0 mi East 3.5 mph - N/A   Clear
6:35 AM 56.5 °F - 50.5 °F 80% 29.94 in 10.0 mi SE 4.6 mph - N/A   Clear
6:55 AM 56.3 °F - 50.2 °F 80% 29.94 in 10.0 mi SE 3.5 mph - N/A   Clear
7:15 AM 56.1 °F - 50.2 °F 80% 29.94 in 10.0 mi Calm Calm - N/A   Clear
7:35 AM 57.6 °F - 50.9 °F 78% 29.94 in 10.0 mi Calm Calm - N/A   Clear
7:55 AM 59.7 °F - 51.4 °F 74% 29.94 in 10.0 mi Calm Calm - N/A   Clear
8:15 AM 64.2 °F - 53.8 °F 69% 29.94 in 10.0 mi South 6.9 mph - N/A   Scattered Clouds
8:35 AM 67.1 °F - 53.4 °F 61% 29.93 in 10.0 mi South 9.2 mph - N/A   Clear
8:55 AM 69.6 °F - 53.2 °F 56% 29.94 in 10.0 mi South 13.8 mph 19.6 mph N/A   Clear
9:15 AM 70.5 °F - 53.2 °F 54% 29.94 in 10.0 mi South 15.0 mph 25.3 mph N/A   Clear
9:35 AM 72.5 °F - 52.7 °F 50% 29.94 in 10.0 mi SSW 11.5 mph 25.3 mph N/A   Clear
9:55 AM 74.5 °F - 52.7 °F 46% 29.95 in 10.0 mi South 12.7 mph 21.9 mph N/A   Clear
10:15 AM 74.3 °F - 51.3 °F 44% 29.94 in 10.0 mi South 20.7 mph 27.6 mph N/A   Clear
10:35 AM 74.7 °F - 51.3 °F 44% 29.93 in 10.0 mi South 17.3 mph 26.5 mph N/A   Clear
10:55 AM 76.3 °F - 51.4 °F 42% 29.93 in 10.0 mi SSW 12.7 mph 25.3 mph N/A   Clear
11:15 AM 77.9 °F - 49.8 °F 37% 29.92 in 10.0 mi South 18.4 mph 26.5 mph N/A   Clear
11:35 AM 78.6 °F - 50.2 °F 37% 29.92 in 10.0 mi South 16.1 mph 23.0 mph N/A   Clear
11:55 AM 79.0 °F - 50.9 °F 37% 29.92 in 10.0 mi SSW 8.1 mph 23.0 mph N/A   Clear
12:15 PM 79.3 °F - 51.6 °F 38% 29.91 in 10.0 mi SSW 9.2 mph 24.2 mph N/A   Clear
12:35 PM 80.6 °F - 51.4 °F 36% 29.90 in 10.0 mi South 15.0 mph 23.0 mph N/A   Clear
12:55 PM 79.7 °F - 51.8 °F 38% 29.90 in 10.0 mi South 11.5 mph 24.2 mph N/A   Clear
1:15 PM 79.5 °F - 51.8 °F 38% 29.88 in 10.0 mi SSW 15.0 mph 25.3 mph N/A   Clear
1:35 PM 80.4 °F - 52.5 °F 38% 29.87 in 10.0 mi SSW 10.4 mph 20.7 mph N/A   Clear
1:55 PM 80.4 °F - 52.9 °F 38% 29.86 in 10.0 mi South 10.4 mph 21.9 mph N/A   Clear
2:15 PM 80.8 °F 80.3 °F 53.2 °F 38% 29.85 in 10.0 mi South 12.7 mph 26.5 mph N/A   Clear
2:35 PM 80.2 °F 80.2 °F 54.3 °F 41% 29.85 in 10.0 mi South 9.2 mph 24.2 mph N/A   Clear
2:55 PM 79.3 °F - 54.3 °F 42% 29.84 in 10.0 mi South 13.8 mph 24.2 mph N/A   Clear
3:15 PM 80.6 °F 80.4 °F 54.7 °F 41% 29.83 in 10.0 mi South 12.7 mph 18.4 mph N/A   Clear
3:35 PM 79.9 °F - 54.1 °F 41% 29.83 in 10.0 mi South 12.7 mph 21.9 mph N/A   Clear
3:55 PM 81.0 °F 80.6 °F 54.3 °F 40% 29.83 in 10.0 mi South 12.7 mph 19.6 mph N/A   Clear
4:15 PM 81.0 °F 80.5 °F 53.8 °F 39% 29.82 in 10.0 mi SSW 10.4 mph 20.7 mph N/A   Clear
4:35 PM 81.1 °F 80.6 °F 53.6 °F 38% 29.82 in 10.0 mi South 11.5 mph 17.3 mph N/A   Clear
4:55 PM 80.6 °F 80.3 °F 53.4 °F 39% 29.82 in 10.0 mi South 6.9 mph 19.6 mph N/A   Clear
5:15 PM 80.1 °F 80.0 °F 53.4 °F 40% 29.82 in 10.0 mi South 11.5 mph 18.4 mph N/A   Clear
5:35 PM 79.2 °F - 54.1 °F 42% 29.82 in 10.0 mi South 10.4 mph 16.1 mph N/A   Clear
5:55 PM 77.5 °F - 54.5 °F 45% 29.83 in 10.0 mi South 11.5 mph 18.4 mph N/A   Clear
6:15 PM 76.6 °F - 54.5 °F 46% 29.83 in 10.0 mi South 13.8 mph 19.6 mph N/A   Clear
6:35 PM 75.2 °F - 54.5 °F 48% 29.82 in 10.0 mi South 8.1 mph - N/A   Clear
6:55 PM 74.1 °F - 54.7 °F 51% 29.83 in 10.0 mi South 6.9 mph - N/A   Clear
7:15 PM 73.4 °F - 55.0 °F 52% 29.83 in 10.0 mi SSE 5.8 mph - N/A   Clear
7:35 PM 72.3 °F - 55.4 °F 55% 29.84 in 10.0 mi SSE 5.8 mph - N/A   Clear
7:55 PM 71.6 °F - 55.9 °F 58% 29.85 in 10.0 mi SSE 8.1 mph - N/A   Clear
8:15 PM 70.7 °F - 55.9 °F 59% 29.86 in 10.0 mi South 6.9 mph - N/A   Clear
8:35 PM 70.3 °F - 56.3 °F 61% 29.86 in 10.0 mi South 6.9 mph - N/A   Clear
8:55 PM 69.8 °F - 56.8 °F 63% 29.87 in 10.0 mi South 9.2 mph 16.1 mph N/A   Clear
9:15 PM 69.3 °F - 57.4 °F 66% 29.88 in 10.0 mi South 10.4 mph 17.3 mph N/A   Clear
9:35 PM 68.7 °F - 57.4 °F 67% 29.87 in 10.0 mi South 11.5 mph 18.4 mph N/A   Clear
9:55 PM 68.0 °F - 57.4 °F 69% 29.88 in 10.0 mi South 10.4 mph - N/A   Clear
10:15 PM 67.5 °F - 57.6 °F 70% 29.89 in 10.0 mi SSE 6.9 mph - N/A   Clear
10:35 PM 66.6 °F - 57.7 °F 73% 29.90 in 10.0 mi SSE 3.5 mph - N/A   Clear
10:55 PM 66.0 °F - 58.1 °F 76% 29.90 in 10.0 mi SSE 3.5 mph - N/A   Clear
11:15 PM 65.5 °F - 58.5 °F 78% 29.91 in 10.0 mi SSE 4.6 mph - N/A   Clear
11:35 PM 64.9 °F - 58.6 °F 80% 29.90 in 10.0 mi SSE 6.9 mph - N/A   Clear
11:55 PM 65.5 °F - 59.5 °F 81% 29.90 in 10.0 mi SSE 5.8 mph - N/A   Mostly Cloudy